sensor_id;sensor_type;location;lat;lon;timestamp;pressure;altitude;pressure_sealevel;temperature;humidity
9423;BME280;4750;49.506;10.400;2022-07-25T00:02:10;97842.50;;;17.80;68.57
9423;BME280;4750;49.506;10.400;2022-07-25T00:04:54;97823.84;;;17.77;68.57
9423;BME280;4750;49.506;10.400;2022-07-25T00:07:38;97856.84;;;18.03;68.55
9423;BME280;4750;49.506;10.400;2022-07-25T00:10:23;97824.69;;;17.58;68.51
9423;BME280;4750;49.506;10.400;2022-07-25T00:13:06;97835.53;;;17.71;68.81
9423;BME280;4750;49.506;10.400;2022-07-25T00:15:50;97829.03;;;17.80;68.95
9423;BME280;4750;49.506;10.400;2022-07-25T00:18:34;97831.94;;;17.70;69.02
9423;BME280;4750;49.506;10.400;2022-07-25T00:21:18;97828.63;;;17.52;69.02
9423;BME280;4750;49.506;10.400;2022-07-25T00:24:02;97844.66;;;17.69;69.27
9423;BME280;4750;49.506;10.400;2022-07-25T00:26:46;97859.78;;;17.84;69.20
9423;BME280;4750;49.506;10.400;2022-07-25T00:29:30;97807.56;;;17.55;69.42
9423;BME280;4750;49.506;10.400;2022-07-25T00:32:14;97817.00;;;17.70;69.25
9423;BME280;4750;49.506;10.400;2022-07-25T00:34:58;97834.25;;;17.62;69.44
9423;BME280;4750;49.506;10.400;2022-07-25T00:37:42;97827.13;;;17.51;69.88
9423;BME280;4750;49.506;10.400;2022-07-25T00:40:26;97859.72;;;17.72;70.11
9423;BME280;4750;49.506;10.400;2022-07-25T00:43:10;97823.56;;;17.51;70.13
9423;BME280;4750;49.506;10.400;2022-07-25T00:45:54;97818.22;;;17.45;70.09
9423;BME280;4750;49.506;10.400;2022-07-25T00:48:38;97838.88;;;17.58;70.13
9423;BME280;4750;49.506;10.400;2022-07-25T00:51:24;97805.97;;;17.21;70.25
9423;BME280;4750;49.506;10.400;2022-07-25T00:54:08;97813.25;;;17.24;70.47
9423;BME280;4750;49.506;10.400;2022-07-25T00:56:53;97848.34;;;17.50;70.58
9423;BME280;4750;49.506;10.400;2022-07-25T00:59:36;97749.09;;;16.87;70.37
9423;BME280;4750;49.506;10.400;2022-07-25T01:02:21;97785.72;;;17.05;70.57
9423;BME280;4750;49.506;10.400;2022-07-25T01:05:06;97758.50;;;16.90;70.76
9423;BME280;4750;49.506;10.400;2022-07-25T01:07:50;97802.09;;;17.16;70.87
9423;BME280;4750;49.506;10.400;2022-07-25T01:10:35;97807.06;;;17.06;71.26
9423;BME280;4750;49.506;10.400;2022-07-25T01:13:20;97798.56;;;17.06;71.36
9423;BME280;4750;49.506;10.400;2022-07-25T01:16:04;97804.66;;;17.12;71.50
9423;BME280;4750;49.506;10.400;2022-07-25T01:18:49;97800.56;;;16.94;71.37
9423;BME280;4750;49.506;10.400;2022-07-25T01:21:36;97787.47;;;16.89;71.69
9423;BME280;4750;49.506;10.400;2022-07-25T01:24:20;97780.09;;;16.95;72.12
9423;BME280;4750;49.506;10.400;2022-07-25T01:27:04;97817.09;;;17.07;72.33
9423;BME280;4750;49.506;10.400;2022-07-25T01:29:48;97788.78;;;16.87;72.45
9423;BME280;4750;49.506;10.400;2022-07-25T01:32:34;97801.59;;;16.98;72.75
9423;BME280;4750;49.506;10.400;2022-07-25T01:35:19;97796.13;;;16.71;72.88
9423;BME280;4750;49.506;10.400;2022-07-25T01:38:03;97791.38;;;16.74;73.16
9423;BME280;4750;49.506;10.400;2022-07-25T01:40:47;97793.75;;;16.77;73.35
9423;BME280;4750;49.506;10.400;2022-07-25T01:43:31;97814.69;;;17.03;73.25
9423;BME280;4750;49.506;10.400;2022-07-25T01:46:15;97787.09;;;16.63;73.15
9423;BME280;4750;49.506;10.400;2022-07-25T01:48:59;97767.09;;;16.61;73.17
9423;BME280;4750;49.506;10.400;2022-07-25T01:51:43;97782.91;;;16.64;73.28
9423;BME280;4750;49.506;10.400;2022-07-25T01:54:27;97829.06;;;16.96;73.41
9423;BME280;4750;49.506;10.400;2022-07-25T01:57:10;97817.13;;;16.87;73.15
9423;BME280;4750;49.506;10.400;2022-07-25T01:59:54;97800.72;;;16.86;73.27
9423;BME280;4750;49.506;10.400;2022-07-25T02:02:42;97808.94;;;16.92;72.95
9423;BME280;4750;49.506;10.400;2022-07-25T02:05:27;97811.47;;;16.87;73.12
9423;BME280;4750;49.506;10.400;2022-07-25T02:08:11;97808.50;;;16.85;73.00
9423;BME280;4750;49.506;10.400;2022-07-25T02:10:55;97823.34;;;17.06;72.99
9423;BME280;4750;49.506;10.400;2022-07-25T02:13:39;97812.78;;;16.96;72.96
9423;BME280;4750;49.506;10.400;2022-07-25T02:16:23;97789.22;;;16.84;72.67
9423;BME280;4750;49.506;10.400;2022-07-25T02:19:07;97793.13;;;16.89;72.70
9423;BME280;4750;49.506;10.400;2022-07-25T02:21:51;97815.47;;;17.04;72.61
9423;BME280;4750;49.506;10.400;2022-07-25T02:24:35;97812.16;;;17.08;72.62
9423;BME280;4750;49.506;10.400;2022-07-25T02:27:19;97791.94;;;16.92;72.60
9423;BME280;4750;49.506;10.400;2022-07-25T02:30:05;97814.38;;;17.09;72.53
9423;BME280;4750;49.506;10.400;2022-07-25T02:32:49;97805.16;;;16.99;72.43
9423;BME280;4750;49.506;10.400;2022-07-25T02:35:33;97815.47;;;17.04;72.52
9423;BME280;4750;49.506;10.400;2022-07-25T02:38:17;97804.44;;;16.98;72.58
9423;BME280;4750;49.506;10.400;2022-07-25T02:41:02;97785.38;;;16.89;72.54
9423;BME280;4750;49.506;10.400;2022-07-25T02:43:47;97791.94;;;16.92;72.51
9423;BME280;4750;49.506;10.400;2022-07-25T02:46:31;97767.47;;;16.77;72.43
9423;BME280;4750;49.506;10.400;2022-07-25T02:49:15;97765.53;;;16.79;72.44
9423;BME280;4750;49.506;10.400;2022-07-25T02:51:59;97790.88;;;16.97;72.58
9423;BME280;4750;49.506;10.400;2022-07-25T02:54:43;97767.44;;;16.86;72.54
9423;BME280;4750;49.506;10.400;2022-07-25T02:57:27;97702.28;;;16.45;72.52
9423;BME280;4750;49.506;10.400;2022-07-25T03:00:12;97778.31;;;17.00;72.54
9423;BME280;4750;49.506;10.400;2022-07-25T03:02:57;97743.47;;;16.78;72.51
9423;BME280;4750;49.506;10.400;2022-07-25T03:05:41;97774.53;;;17.07;72.48
9423;BME280;4750;49.506;10.400;2022-07-25T03:08:25;97759.53;;;16.95;72.44
9423;BME280;4750;49.506;10.400;2022-07-25T03:11:11;97778.88;;;17.08;72.85
9423;BME280;4750;49.506;10.400;2022-07-25T03:13:55;97750.41;;;16.96;72.75
9423;BME280;4750;49.506;10.400;2022-07-25T03:16:39;97735.84;;;16.90;72.38
9423;BME280;4750;49.506;10.400;2022-07-25T03:19:23;97732.69;;;16.86;72.55
9423;BME280;4750;49.506;10.400;2022-07-25T03:22:07;97750.41;;;16.96;72.51
9423;BME280;4750;49.506;10.400;2022-07-25T03:24:51;97755.03;;;17.01;72.71
9423;BME280;4750;49.506;10.400;2022-07-25T03:27:36;97726.19;;;16.74;72.79
9423;BME280;4750;49.506;10.400;2022-07-25T03:30:20;97746.13;;;16.85;72.89
9423;BME280;4750;49.506;10.400;2022-07-25T03:33:04;97735.00;;;16.68;72.94
9423;BME280;4750;49.506;10.400;2022-07-25T03:35:48;97737.06;;;16.77;73.42
9423;BME280;4750;49.506;10.400;2022-07-25T03:38:32;97726.66;;;16.70;73.37
9423;BME280;4750;49.506;10.400;2022-07-25T03:41:16;97725.41;;;16.83;73.49
9423;BME280;4750;49.506;10.400;2022-07-25T03:44:00;97705.13;;;16.77;73.34
9423;BME280;4750;49.506;10.400;2022-07-25T03:46:43;97696.03;;;16.78;73.21
9423;BME280;4750;49.506;10.400;2022-07-25T03:49:27;97701.69;;;16.78;73.05
9423;BME280;4750;49.506;10.400;2022-07-25T03:52:11;97705.13;;;16.77;73.19
9423;BME280;4750;49.506;10.400;2022-07-25T03:54:55;97710.16;;;16.88;73.30
9423;BME280;4750;49.506;10.400;2022-07-25T03:57:39;97723.69;;;16.99;73.02
9423;BME280;4750;49.506;10.400;2022-07-25T04:00:23;97716.22;;;17.04;73.38
9423;BME280;4750;49.506;10.400;2022-07-25T04:03:07;97703.06;;;17.09;73.25
9423;BME280;4750;49.506;10.400;2022-07-25T04:05:51;97710.13;;;17.19;73.16
9423;BME280;4750;49.506;10.400;2022-07-25T04:08:35;97711.94;;;17.36;73.02
9423;BME280;4750;49.506;10.400;2022-07-25T04:11:20;97724.78;;;17.59;72.72
9423;BME280;4750;49.506;10.400;2022-07-25T04:14:04;97733.69;;;17.65;72.51
9423;BME280;4750;49.506;10.400;2022-07-25T04:16:48;97728.69;;;17.76;72.38
9423;BME280;4750;49.506;10.400;2022-07-25T04:19:32;97697.28;;;17.62;72.20
9423;BME280;4750;49.506;10.400;2022-07-25T04:22:16;97714.03;;;17.79;72.40
9423;BME280;4750;49.506;10.400;2022-07-25T04:25:00;97718.22;;;18.12;72.07
9423;BME280;4750;49.506;10.400;2022-07-25T04:27:44;97714.25;;;18.17;71.56
9423;BME280;4750;49.506;10.400;2022-07-25T04:30:28;97686.94;;;18.00;71.32
9423;BME280;4750;49.506;10.400;2022-07-25T04:33:13;97671.66;;;18.17;71.29
9423;BME280;4750;49.506;10.400;2022-07-25T04:35:57;97700.84;;;18.41;70.79
9423;BME280;4750;49.506;10.400;2022-07-25T04:38:41;97633.00;;;18.00;71.04
9423;BME280;4750;49.506;10.400;2022-07-25T04:41:25;97669.47;;;18.39;71.02
9423;BME280;4750;49.506;10.400;2022-07-25T04:44:09;97664.03;;;18.43;70.76
9423;BME280;4750;49.506;10.400;2022-07-25T04:46:53;97674.53;;;18.76;70.84
9423;BME280;4750;49.506;10.400;2022-07-25T04:49:37;97677.25;;;18.98;70.51
9423;BME280;4750;49.506;10.400;2022-07-25T04:52:21;97682.88;;;19.21;70.16
9423;BME280;4750;49.506;10.400;2022-07-25T04:55:05;97698.41;;;19.44;69.77
9423;BME280;4750;49.506;10.400;2022-07-25T04:57:50;97680.31;;;19.51;69.54
9423;BME280;4750;49.506;10.400;2022-07-25T05:00:34;97651.13;;;19.51;69.19
9423;BME280;4750;49.506;10.400;2022-07-25T05:03:17;97681.69;;;19.88;68.82
9423;BME280;4750;49.506;10.400;2022-07-25T05:06:02;97669.81;;;20.05;68.42
9423;BME280;4750;49.506;10.400;2022-07-25T05:08:46;97696.16;;;20.45;67.71
9423;BME280;4750;49.506;10.400;2022-07-25T05:11:30;97661.06;;;20.69;67.11
9423;BME280;4750;49.506;10.400;2022-07-25T05:14:14;97657.19;;;21.33;65.53
9423;BME280;4750;49.506;10.400;2022-07-25T05:16:58;97684.72;;;22.96;62.79
9423;BME280;4750;49.506;10.400;2022-07-25T05:19:42;97680.69;;;24.84;57.75
9423;BME280;4750;49.506;10.400;2022-07-25T05:22:26;97663.16;;;26.28;52.46
9423;BME280;4750;49.506;10.400;2022-07-25T05:25:10;97667.13;;;27.46;48.31
9423;BME280;4750;49.506;10.400;2022-07-25T05:27:54;97664.00;;;27.97;46.41
9423;BME280;4750;49.506;10.400;2022-07-25T05:30:41;97679.56;;;29.22;43.96
9423;BME280;4750;49.506;10.400;2022-07-25T05:33:25;97687.84;;;29.80;42.92
9423;BME280;4750;49.506;10.400;2022-07-25T05:36:09;97653.00;;;29.72;42.10
9423;BME280;4750;49.506;10.400;2022-07-25T05:38:53;97670.75;;;29.52;42.17
9423;BME280;4750;49.506;10.400;2022-07-25T05:41:37;97661.69;;;29.74;42.01
9423;BME280;4750;49.506;10.400;2022-07-25T05:44:21;97670.41;;;30.78;40.64
9423;BME280;4750;49.506;10.400;2022-07-25T05:47:09;97673.31;;;31.50;39.03
9423;BME280;4750;49.506;10.400;2022-07-25T05:49:53;97664.41;;;30.62;38.48
9423;BME280;4750;49.506;10.400;2022-07-25T05:52:37;97632.88;;;29.35;40.94
9423;BME280;4750;49.506;10.400;2022-07-25T05:55:21;97651.69;;;29.81;42.50
9423;BME280;4750;49.506;10.400;2022-07-25T05:58:05;97646.69;;;29.84;41.04
9423;BME280;4750;49.506;10.400;2022-07-25T06:00:49;97684.72;;;30.64;40.29
9423;BME280;4750;49.506;10.400;2022-07-25T06:03:36;97658.56;;;30.58;39.90
9423;BME280;4750;49.506;10.400;2022-07-25T06:06:20;97660.47;;;30.38;41.41
9423;BME280;4750;49.506;10.400;2022-07-25T06:09:04;97663.38;;;30.98;39.86
9423;BME280;4750;49.506;10.400;2022-07-25T06:11:49;97646.38;;;30.67;39.70
9423;BME280;4750;49.506;10.400;2022-07-25T06:14:33;97631.00;;;31.18;38.82
9423;BME280;4750;49.506;10.400;2022-07-25T06:17:17;97648.34;;;32.02;37.86
9423;BME280;4750;49.506;10.400;2022-07-25T06:20:01;97632.69;;;31.41;38.31
9423;BME280;4750;49.506;10.400;2022-07-25T06:22:45;97639.41;;;31.67;37.81
9423;BME280;4750;49.506;10.400;2022-07-25T06:25:30;97649.34;;;32.52;36.94
9423;BME280;4750;49.506;10.400;2022-07-25T06:28:14;97641.16;;;32.11;37.38
9423;BME280;4750;49.506;10.400;2022-07-25T06:30:58;97636.91;;;32.26;36.31
9423;BME280;4750;49.506;10.400;2022-07-25T06:33:42;97641.31;;;32.34;36.78
9423;BME280;4750;49.506;10.400;2022-07-25T06:36:26;97645.81;;;32.70;36.43
9423;BME280;4750;49.506;10.400;2022-07-25T06:39:10;97603.38;;;32.03;36.15
9423;BME280;4750;49.506;10.400;2022-07-25T06:41:54;97631.94;;;32.52;36.76
9423;BME280;4750;49.506;10.400;2022-07-25T06:44:38;97607.28;;;32.59;36.00
9423;BME280;4750;49.506;10.400;2022-07-25T06:47:22;97622.66;;;32.97;35.58
9423;BME280;4750;49.506;10.400;2022-07-25T06:50:08;97620.28;;;32.41;34.93
9423;BME280;4750;49.506;10.400;2022-07-25T06:52:53;97643.03;;;33.19;35.40
9423;BME280;4750;49.506;10.400;2022-07-25T06:55:37;97637.75;;;32.52;35.82
9423;BME280;4750;49.506;10.400;2022-07-25T06:58:21;97610.03;;;32.20;36.05
9423;BME280;4750;49.506;10.400;2022-07-25T07:01:05;97600.66;;;32.32;36.29
9423;BME280;4750;49.506;10.400;2022-07-25T07:03:49;97610.38;;;31.61;37.11
9423;BME280;4750;49.506;10.400;2022-07-25T07:06:33;97623.78;;;32.15;37.32
9423;BME280;4750;49.506;10.400;2022-07-25T07:09:19;97573.47;;;31.71;37.57
9423;BME280;4750;49.506;10.400;2022-07-25T07:12:03;97578.72;;;32.06;36.32
9423;BME280;4750;49.506;10.400;2022-07-25T07:14:47;97613.63;;;32.16;36.71
9423;BME280;4750;49.506;10.400;2022-07-25T07:17:31;97604.81;;;32.00;36.82
9423;BME280;4750;49.506;10.400;2022-07-25T07:20:15;97585.88;;;31.86;36.98
9423;BME280;4750;49.506;10.400;2022-07-25T07:22:59;97585.75;;;31.66;37.78
9423;BME280;4750;49.506;10.400;2022-07-25T07:25:44;97579.19;;;30.79;38.13
9423;BME280;4750;49.506;10.400;2022-07-25T07:28:29;97606.81;;;30.93;39.42
9423;BME280;4750;49.506;10.400;2022-07-25T07:31:15;97588.53;;;31.55;38.04
9423;BME280;4750;49.506;10.400;2022-07-25T07:34:00;97587.50;;;31.14;38.33
9423;BME280;4750;49.506;10.400;2022-07-25T07:36:45;97596.59;;;30.83;39.02
9423;BME280;4750;49.506;10.400;2022-07-25T07:39:29;97560.50;;;30.29;39.33
9423;BME280;4750;49.506;10.400;2022-07-25T07:42:13;97580.75;;;30.27;40.00
9423;BME280;4750;49.506;10.400;2022-07-25T07:44:57;97584.47;;;29.83;40.44
9423;BME280;4750;49.506;10.400;2022-07-25T07:47:41;97524.09;;;29.54;40.21
9423;BME280;4750;49.506;10.400;2022-07-25T07:50:26;97576.03;;;29.97;40.78
9423;BME280;4750;49.506;10.400;2022-07-25T07:53:10;97566.28;;;30.27;39.51
9423;BME280;4750;49.506;10.400;2022-07-25T07:55:54;97590.78;;;30.20;39.73
9423;BME280;4750;49.506;10.400;2022-07-25T07:58:39;97567.53;;;30.14;39.80
9423;BME280;4750;49.506;10.400;2022-07-25T08:01:23;97569.78;;;30.81;40.48
9423;BME280;4750;49.506;10.400;2022-07-25T08:04:08;97523.56;;;30.97;38.40
9423;BME280;4750;49.506;10.400;2022-07-25T08:06:52;97558.19;;;31.67;37.67
9423;BME280;4750;49.506;10.400;2022-07-25T08:09:36;97529.22;;;31.71;36.08
9423;BME280;4750;49.506;10.400;2022-07-25T08:12:20;97573.91;;;31.37;36.81
9423;BME280;4750;49.506;10.400;2022-07-25T08:15:04;97539.22;;;31.51;37.19
9423;BME280;4750;49.506;10.400;2022-07-25T08:17:49;97565.63;;;32.01;36.84
9423;BME280;4750;49.506;10.400;2022-07-25T08:20:34;97543.88;;;32.02;35.90
9423;BME280;4750;49.506;10.400;2022-07-25T08:23:18;97564.25;;;32.10;35.72
9423;BME280;4750;49.506;10.400;2022-07-25T08:26:04;97546.06;;;32.01;36.02
9423;BME280;4750;49.506;10.400;2022-07-25T08:28:48;97544.59;;;32.02;35.98
9423;BME280;4750;49.506;10.400;2022-07-25T08:31:32;97536.03;;;32.29;35.88
9423;BME280;4750;49.506;10.400;2022-07-25T08:34:16;97533.81;;;32.17;36.19
9423;BME280;4750;49.506;10.400;2022-07-25T08:37:00;97517.78;;;32.08;36.44
9423;BME280;4750;49.506;10.400;2022-07-25T08:39:45;97539.72;;;32.50;36.44
9423;BME280;4750;49.506;10.400;2022-07-25T08:42:29;97541.28;;;32.99;34.89
9423;BME280;4750;49.506;10.400;2022-07-25T08:45:17;97534.06;;;33.26;34.83
9423;BME280;4750;49.506;10.400;2022-07-25T08:48:04;97523.84;;;32.99;34.89
9423;BME280;4750;49.506;10.400;2022-07-25T08:50:49;97520.94;;;32.88;34.73
9423;BME280;4750;49.506;10.400;2022-07-25T08:53:34;97522.41;;;32.89;34.75
9423;BME280;4750;49.506;10.400;2022-07-25T08:56:19;97507.88;;;32.98;34.17
9423;BME280;4750;49.506;10.400;2022-07-25T08:59:03;97496.25;;;33.12;33.64
9423;BME280;4750;49.506;10.400;2022-07-25T09:01:47;97512.94;;;33.42;33.38
9423;BME280;4750;49.506;10.400;2022-07-25T09:04:32;97475.16;;;33.22;33.36
9423;BME280;4750;49.506;10.400;2022-07-25T09:07:17;97489.72;;;33.28;33.43
9423;BME280;4750;49.506;10.400;2022-07-25T09:10:16;97504.91;;;33.55;33.03
9423;BME280;4750;49.506;10.400;2022-07-25T09:13:03;97480.22;;;33.48;32.90
9423;BME280;4750;49.506;10.400;2022-07-25T09:15:50;97512.19;;;33.60;32.27
9423;BME280;4750;49.506;10.400;2022-07-25T09:18:35;97490.34;;;33.70;31.88
9423;BME280;4750;49.506;10.400;2022-07-25T09:21:22;97475.78;;;33.82;32.22
9423;BME280;4750;49.506;10.400;2022-07-25T09:24:17;97496.03;;;34.13;31.12
9423;BME280;4750;49.506;10.400;2022-07-25T09:27:08;97498.06;;;34.43;31.49
9423;BME280;4750;49.506;10.400;2022-07-25T09:29:53;97502.53;;;34.28;31.50
9423;BME280;4750;49.506;10.400;2022-07-25T09:32:37;97495.91;;;34.38;30.50
9423;BME280;4750;49.506;10.400;2022-07-25T09:35:28;97476.25;;;34.42;30.39
9423;BME280;4750;49.506;10.400;2022-07-25T09:38:14;97497.06;;;34.88;29.57
9423;BME280;4750;49.506;10.400;2022-07-25T09:41:00;97478.41;;;34.42;30.23
9423;BME280;4750;49.506;10.400;2022-07-25T09:43:44;97453.78;;;34.20;30.39
9423;BME280;4750;49.506;10.400;2022-07-25T09:46:29;97498.69;;;34.60;30.82
9423;BME280;4750;49.506;10.400;2022-07-25T09:49:14;97482.09;;;34.32;31.05
9423;BME280;4750;49.506;10.400;2022-07-25T09:51:58;97484.25;;;34.40;31.62
9423;BME280;4750;49.506;10.400;2022-07-25T09:54:43;97486.81;;;34.95;31.09
9423;BME280;4750;49.506;10.400;2022-07-25T09:57:27;97480.81;;;35.16;30.67
9423;BME280;4750;49.506;10.400;2022-07-25T10:00:12;97426.44;;;34.77;30.33
9423;BME280;4750;49.506;10.400;2022-07-25T10:06:36;97477.13;;;35.17;30.36
9423;BME280;4750;49.506;10.400;2022-07-25T10:09:22;97433.06;;;34.70;30.69
9423;BME280;4750;49.506;10.400;2022-07-25T10:12:08;97340.81;;;34.41;29.68
9423;BME280;4750;49.506;10.400;2022-07-25T10:15:04;97458.94;;;35.13;29.38
9423;BME280;4750;49.506;10.400;2022-07-25T10:18:01;97469.25;;;35.04;29.07
9423;BME280;4750;49.506;10.400;2022-07-25T10:20:47;97444.59;;;34.88;29.68
9423;BME280;4750;49.506;10.400;2022-07-25T10:23:32;97424.53;;;34.43;30.08
9423;BME280;4750;49.506;10.400;2022-07-25T10:26:16;97440.34;;;34.71;30.44
9423;BME280;4750;49.506;10.400;2022-07-25T10:29:07;97455.25;;;35.21;29.98
9423;BME280;4750;49.506;10.400;2022-07-25T10:31:52;97435.59;;;35.17;28.98
9423;BME280;4750;49.506;10.400;2022-07-25T10:34:37;97447.00;;;35.46;28.54
9423;BME280;4750;49.506;10.400;2022-07-25T10:37:27;97433.41;;;35.86;28.06
9423;BME280;4750;49.506;10.400;2022-07-25T10:40:33;97436.28;;;35.90;28.24
9423;BME280;4750;49.506;10.400;2022-07-25T10:43:19;97420.72;;;36.06;27.16
9423;BME280;4750;49.506;10.400;2022-07-25T10:46:16;97421.47;;;36.07;26.53
9423;BME280;4750;49.506;10.400;2022-07-25T10:49:03;97400.63;;;36.33;26.27
9423;BME280;4750;49.506;10.400;2022-07-25T10:51:56;97413.66;;;36.43;26.61
9423;BME280;4750;49.506;10.400;2022-07-25T10:54:40;97411.09;;;36.16;26.93
9423;BME280;4750;49.506;10.400;2022-07-25T10:57:26;97413.91;;;36.22;26.48
9423;BME280;4750;49.506;10.400;2022-07-25T11:00:10;97408.50;;;35.93;26.51
9423;BME280;4750;49.506;10.400;2022-07-25T11:02:55;97386.00;;;35.85;27.21
9423;BME280;4750;49.506;10.400;2022-07-25T11:05:47;97390.75;;;36.10;27.04
9423;BME280;4750;49.506;10.400;2022-07-25T11:08:32;97391.91;;;35.77;27.09
9423;BME280;4750;49.506;10.400;2022-07-25T11:11:16;97402.16;;;36.30;27.66
9423;BME280;4750;49.506;10.400;2022-07-25T11:14:01;97391.00;;;36.89;26.15
9423;BME280;4750;49.506;10.400;2022-07-25T11:16:47;97383.06;;;36.38;26.50
9423;BME280;4750;49.506;10.400;2022-07-25T11:19:31;97372.44;;;36.61;25.95
9423;BME280;4750;49.506;10.400;2022-07-25T11:22:15;97383.34;;;36.65;25.13
9423;BME280;4750;49.506;10.400;2022-07-25T11:25:01;97372.66;;;36.49;24.22
9423;BME280;4750;49.506;10.400;2022-07-25T11:27:49;97383.78;;;36.84;24.73
9423;BME280;4750;49.506;10.400;2022-07-25T11:30:38;97365.25;;;36.54;24.27
9423;BME280;4750;49.506;10.400;2022-07-25T11:33:22;97358.09;;;36.45;24.89
9423;BME280;4750;49.506;10.400;2022-07-25T11:36:07;97375.38;;;36.61;25.21
9423;BME280;4750;49.506;10.400;2022-07-25T11:38:51;97353.75;;;36.44;25.55
9423;BME280;4750;49.506;10.400;2022-07-25T11:41:35;97348.75;;;36.38;24.58
9423;BME280;4750;49.506;10.400;2022-07-25T11:44:29;97354.75;;;36.26;25.01
9423;BME280;4750;49.506;10.400;2022-07-25T11:47:29;97365.63;;;36.31;24.41
9423;BME280;4750;49.506;10.400;2022-07-25T11:50:14;97364.19;;;36.28;24.07
9423;BME280;4750;49.506;10.400;2022-07-25T11:53:00;97327.94;;;36.11;24.00
9423;BME280;4750;49.506;10.400;2022-07-25T11:55:44;97312.69;;;36.06;22.87
9423;BME280;4750;49.506;10.400;2022-07-25T11:58:29;97332.59;;;35.93;22.66
9423;BME280;4750;49.506;10.400;2022-07-25T12:01:14;97343.78;;;36.26;22.61
9423;BME280;4750;49.506;10.400;2022-07-25T12:04:16;97362.16;;;36.64;22.32
9423;BME280;4750;49.506;10.400;2022-07-25T12:07:03;97362.94;;;36.63;21.99
9423;BME280;4750;49.506;10.400;2022-07-25T12:09:56;97354.13;;;37.07;21.59
9423;BME280;4750;49.506;10.400;2022-07-25T12:15:40;97358.31;;;36.76;22.74
9423;BME280;4750;49.506;10.400;2022-07-25T12:18:25;97362.16;;;36.66;23.59
9423;BME280;4750;49.506;10.400;2022-07-25T12:21:09;97349.91;;;36.56;23.79
9423;BME280;4750;49.506;10.400;2022-07-25T12:23:54;97361.66;;;36.51;23.95
9423;BME280;4750;49.506;10.400;2022-07-25T12:26:38;97354.91;;;36.61;23.83
9423;BME280;4750;49.506;10.400;2022-07-25T12:29:22;97334.00;;;36.46;23.58
9423;BME280;4750;49.506;10.400;2022-07-25T12:32:06;97344.25;;;36.43;24.56
9423;BME280;4750;49.506;10.400;2022-07-25T12:34:50;97339.28;;;36.77;24.65
9423;BME280;4750;49.506;10.400;2022-07-25T12:37:34;97328.09;;;36.92;24.21
9423;BME280;4750;49.506;10.400;2022-07-25T12:40:18;97335.41;;;36.91;22.25
9423;BME280;4750;49.506;10.400;2022-07-25T12:43:03;97352.94;;;36.91;22.26
9423;BME280;4750;49.506;10.400;2022-07-25T12:45:47;97327.03;;;36.68;22.60
9423;BME280;4750;49.506;10.400;2022-07-25T12:48:31;97335.88;;;36.64;23.45
9423;BME280;4750;49.506;10.400;2022-07-25T12:51:16;97337.00;;;36.84;23.06
9423;BME280;4750;49.506;10.400;2022-07-25T12:54:00;97277.31;;;36.70;22.39
9423;BME280;4750;49.506;10.400;2022-07-25T12:56:44;97323.78;;;37.27;22.68
9423;BME280;4750;49.506;10.400;2022-07-25T12:59:27;97305.53;;;37.24;22.42
9423;BME280;4750;49.506;10.400;2022-07-25T13:02:11;97317.47;;;37.49;21.80
9423;BME280;4750;49.506;10.400;2022-07-25T13:04:55;97318.75;;;37.21;21.72
9423;BME280;4750;49.506;10.400;2022-07-25T13:07:39;97342.06;;;37.27;22.18
9423;BME280;4750;49.506;10.400;2022-07-25T13:10:23;97287.50;;;36.71;22.52
9423;BME280;4750;49.506;10.400;2022-07-25T13:13:07;97293.47;;;36.65;22.54
9423;BME280;4750;49.506;10.400;2022-07-25T13:15:51;97306.31;;;36.83;22.97
9423;BME280;4750;49.506;10.400;2022-07-25T13:18:37;97299.50;;;36.97;22.92
9423;BME280;4750;49.506;10.400;2022-07-25T13:21:21;97290.94;;;37.22;22.75
9423;BME280;4750;49.506;10.400;2022-07-25T13:24:05;97293.25;;;36.80;22.50
9423;BME280;4750;49.506;10.400;2022-07-25T13:26:50;97300.78;;;36.23;23.20
9423;BME280;4750;49.506;10.400;2022-07-25T13:29:34;97302.66;;;36.43;23.48
9423;BME280;4750;49.506;10.400;2022-07-25T13:32:19;97322.75;;;36.63;23.41
9423;BME280;4750;49.506;10.400;2022-07-25T13:35:04;97308.50;;;36.43;23.95
9423;BME280;4750;49.506;10.400;2022-07-25T13:37:48;97300.84;;;36.16;24.39
9423;BME280;4750;49.506;10.400;2022-07-25T13:40:33;97302.38;;;36.57;23.98
9423;BME280;4750;49.506;10.400;2022-07-25T13:43:17;97283.84;;;36.73;23.94
9423;BME280;4750;49.506;10.400;2022-07-25T13:46:01;97292.03;;;37.04;23.75
9423;BME280;4750;49.506;10.400;2022-07-25T13:48:45;97307.97;;;36.71;24.04
9423;BME280;4750;49.506;10.400;2022-07-25T13:51:29;97295.66;;;35.71;25.39
9423;BME280;4750;49.506;10.400;2022-07-25T13:54:13;97318.75;;;35.38;25.54
9423;BME280;4750;49.506;10.400;2022-07-25T13:56:57;97299.09;;;34.65;26.52
9423;BME280;4750;49.506;10.400;2022-07-25T13:59:41;97336.50;;;34.36;26.77
9423;BME280;4750;49.506;10.400;2022-07-25T14:02:25;97311.88;;;34.17;27.49
9423;BME280;4750;49.506;10.400;2022-07-25T14:05:09;97322.91;;;34.02;27.74
9423;BME280;4750;49.506;10.400;2022-07-25T14:07:53;97333.16;;;33.90;27.89
9423;BME280;4750;49.506;10.400;2022-07-25T14:10:37;97332.44;;;33.90;28.29
9423;BME280;4750;49.506;10.400;2022-07-25T14:13:21;97334.72;;;33.67;28.30
9423;BME280;4750;49.506;10.400;2022-07-25T14:16:05;97309.97;;;33.70;28.58
9423;BME280;4750;49.506;10.400;2022-07-25T14:18:49;97315.84;;;33.59;29.03
9423;BME280;4750;49.506;10.400;2022-07-25T14:21:34;97307.09;;;33.63;28.81
9423;BME280;4750;49.506;10.400;2022-07-25T14:24:18;97312.88;;;33.78;29.22
9423;BME280;4750;49.506;10.400;2022-07-25T14:27:02;97303.06;;;34.25;28.76
9423;BME280;4750;49.506;10.400;2022-07-25T14:29:46;97310.38;;;34.22;28.50
9423;BME280;4750;49.506;10.400;2022-07-25T14:32:30;97317.72;;;34.17;28.88
9423;BME280;4750;49.506;10.400;2022-07-25T14:35:14;97273.66;;;33.64;29.24
9423;BME280;4750;49.506;10.400;2022-07-25T14:37:58;97275.16;;;33.55;29.17
9423;BME280;4750;49.506;10.400;2022-07-25T14:40:42;97294.78;;;33.57;29.33
9423;BME280;4750;49.506;10.400;2022-07-25T14:43:26;97289.59;;;33.78;29.46
9423;BME280;4750;49.506;10.400;2022-07-25T14:46:10;97293.09;;;33.99;29.45
9423;BME280;4750;49.506;10.400;2022-07-25T14:48:54;97292.19;;;34.21;29.18
9423;BME280;4750;49.506;10.400;2022-07-25T14:51:38;97266.72;;;34.20;29.00